Caribe Navigator — V2PW6 — position and weather

sailwx.info

Track history (hours):
 
Tides and Currents Weather Stations Pressure Air Temp Water Temp Dewpoint Dewpoint Depression Visibility Wind Speed Wind Dir Waves Ship Positions

Caribe Navigator

Last reported at 2017-Feb-24 00:07 UTC. Time now 2017-Feb-27 20:24 UTC.
Position N 25°17' W 080°04'.

Length 100 m; draft 5.4 m.

Type: Cargo ship. MMSI: 305289000.

Date/timePositionNaut miles runAvg speedWind from/ knotsBaromVisibWave heightAir tempDewpointWater temp
2017-Feb-24 00:07N 25°17' W 080°04'610.9
2017-Feb-23 23:33N 25°22' W 080°02'1111.2
2017-Feb-23 22:33N 25°33' W 080°01'1111.3
2017-Feb-23 21:33N 25°45' W 080°02'1312.9
2017-Feb-23 20:33N 25°58' W 080°04'9 8.6
2017-Feb-23 19:34N 26°05' W 080°07'0 0.0
2017-Feb-23 18:22N 26°05' W 080°07'0 0.0
2017-Feb-23 17:31N 26°05' W 080°07'0 0.0
2017-Feb-23 16:31N 26°05' W 080°07'0 0.0
2017-Feb-23 15:22N 26°05' W 080°07'0 0.0
2017-Feb-23 14:22N 26°05' W 080°07'0 0.0
2017-Feb-23 13:22N 26°05' W 080°07'0 0.0
2017-Feb-23 12:25N 26°05' W 080°07'0 0.0
2017-Feb-23 11:25N 26°05' W 080°07'0 0.0
2017-Feb-23 10:25N 26°05' W 080°07'0 0.0
2017-Feb-23 09:25N 26°05' W 080°07'0 0.0
2017-Feb-23 08:28N 26°05' W 080°07'0 0.0
2017-Feb-23 07:28N 26°05' W 080°07'0 0.0
2017-Feb-23 06:28N 26°05' W 080°07'0 0.0
2017-Feb-23 05:28N 26°05' W 080°07'0 0.0
2017-Feb-23 04:28N 26°05' W 080°07'0 0.0
2017-Feb-23 03:31N 26°05' W 080°07'0 0.0
2017-Feb-23 02:31N 26°05' W 080°07'0 0.0
2017-Feb-23 01:31N 26°05' W 080°07'0 0.0
2017-Feb-23 00:31N 26°05' W 080°07'0 0.0
2017-Feb-22 23:31N 26°05' W 080°07'0 0.0
2017-Feb-22 22:31N 26°05' W 080°07'0 0.0
2017-Feb-22 21:31N 26°05' W 080°07'0 0.0
2017-Feb-22 20:31N 26°05' W 080°07'0 0.0
2017-Feb-22 19:31N 26°05' W 080°07'0 0.0
2017-Feb-22 18:31N 26°05' W 080°07'0 0.0
2017-Feb-22 17:31N 26°05' W 080°07'0 0.0
2017-Feb-22 16:31N 26°05' W 080°07'0 0.0
2017-Feb-22 15:22N 26°05' W 080°07'0 0.0
2017-Feb-22 14:22N 26°05' W 080°07'0 0.0
2017-Feb-22 13:34N 26°05' W 080°07'0 0.0
2017-Feb-22 12:33N 26°05' W 080°07'0 0.0
2017-Feb-22 11:33N 26°05' W 080°07'0 0.0
2017-Feb-22 10:33N 26°05' W 080°07'0 0.0
2017-Feb-22 09:24N 26°05' W 080°07'0 0.0
2017-Feb-22 08:21N 26°05' W 080°07'0 0.0
2017-Feb-22 07:27N 26°05' W 080°07'0 0.0
2017-Feb-22 06:27N 26°05' W 080°07'0 0.0
2017-Feb-22 05:27N 26°05' W 080°07'0 0.0
2017-Feb-22 04:27N 26°05' W 080°07'0 0.0
2017-Feb-22 03:27N 26°05' W 080°07'0 0.0
2017-Feb-22 02:30N 26°05' W 080°07'0 0.0
2017-Feb-22 01:30N 26°05' W 080°07'0 0.0
2017-Feb-22 00:30N 26°05' W 080°07'3 3.7
2017-Feb-21 23:34N 26°03' W 080°04'1515.1
2017-Feb-21 22:33N 25°48' W 080°04'6 5.7
2017-Feb-21 21:33N 25°46' W 080°10'0 0.0
2017-Feb-21 20:33N 25°46' W 080°10'0 0.0
2017-Feb-21 19:32N 25°46' W 080°10'0 0.0
2017-Feb-21 18:32N 25°46' W 080°10'0 0.0
2017-Feb-21 17:32N 25°46' W 080°10'0 0.0
2017-Feb-21 16:33N 25°46' W 080°10'5 5.4
2017-Feb-21 15:33N 25°46' W 080°04'3 3.1
2017-Feb-21 14:34N 25°43' W 080°03'  
2017-Feb-16 23:32N 25°23' W 079°60'1010.1
2017-Feb-16 22:33N 25°33' W 080°01'1010.4
2017-Feb-16 21:33N 25°43' W 080°02'1010.0
2017-Feb-16 20:33N 25°53' W 080°03'1010.1
2017-Feb-16 19:33N 26°03' W 080°04'4 3.2
2017-Feb-16 18:27N 26°05' W 080°07'0 0.0
2017-Feb-16 17:27N 26°05' W 080°07'0 0.0
2017-Feb-16 16:27N 26°05' W 080°07'0 0.0
2017-Feb-16 15:27N 26°05' W 080°07'0 0.0
2017-Feb-16 14:27N 26°05' W 080°07'0 0.0
2017-Feb-16 13:30N 26°05' W 080°07'0 0.0
2017-Feb-16 12:30N 26°05' W 080°07'0 0.0
2017-Feb-16 11:30N 26°05' W 080°07'0 0.0
2017-Feb-16 10:30N 26°05' W 080°07'0 0.0
2017-Feb-16 09:30N 26°05' W 080°07'0 0.0
2017-Feb-16 08:33N 26°05' W 080°07'0 0.0
2017-Feb-16 07:33N 26°05' W 080°07'0 0.0
2017-Feb-16 06:27N 26°05' W 080°07'0 0.0
2017-Feb-16 05:18N 26°05' W 080°07'0 0.0
2017-Feb-16 04:33N 26°05' W 080°07'0 0.0
2017-Feb-16 03:33N 26°05' W 080°07'0 0.0
2017-Feb-16 02:33N 26°05' W 080°07'0 0.0
2017-Feb-16 01:33N 26°05' W 080°07'0 0.0
2017-Feb-16 00:33N 26°05' W 080°07'0 0.0
2017-Feb-15 23:33N 26°05' W 080°07'0 0.0
2017-Feb-15 22:33N 26°05' W 080°07'0 0.0
2017-Feb-15 21:33N 26°05' W 080°07'0 0.0
2017-Feb-15 20:33N 26°05' W 080°07'0 0.0
2017-Feb-15 19:24N 26°05' W 080°07'0 0.0
2017-Feb-15 18:24N 26°05' W 080°07'0 0.0
2017-Feb-15 17:27N 26°05' W 080°07'0 0.0
2017-Feb-15 16:27N 26°05' W 080°07'0 0.0
2017-Feb-15 15:26N 26°05' W 080°07'0 0.0
2017-Feb-15 14:26N 26°05' W 080°07'0 0.0
2017-Feb-15 13:26N 26°05' W 080°07'0 0.0
2017-Feb-15 12:29N 26°05' W 080°07'0 0.0
2017-Feb-15 11:29N 26°05' W 080°07'0 0.0
2017-Feb-15 10:29N 26°05' W 080°07'0 0.0
2017-Feb-15 09:29N 26°05' W 080°07'0 0.0
2017-Feb-15 08:29N 26°05' W 080°07'0 0.0
2017-Feb-15 07:32N 26°05' W 080°07'0 0.0
2017-Feb-15 06:32N 26°05' W 080°07'0 0.0
2017-Feb-15 05:32N 26°05' W 080°07'0 0.0
2017-Feb-15 04:32N 26°05' W 080°07'0 0.0
2017-Feb-15 03:32N 26°05' W 080°07'0 0.0
2017-Feb-15 02:32N 26°05' W 080°07'0 0.0
2017-Feb-15 01:32N 26°05' W 080°07'0 0.0
2017-Feb-15 00:32N 26°05' W 080°07'0 0.0
2017-Feb-14 23:32N 26°05' W 080°07'0 0.2
2017-Feb-14 22:34N 26°06' W 080°07'1312.5
2017-Feb-14 21:33N 25°54' W 080°03'10 9.4
2017-Feb-14 20:32N 25°46' W 080°10'0 0.0
2017-Feb-14 19:32N 25°46' W 080°10'0 0.0
2017-Feb-14 18:32N 25°46' W 080°10'0 0.0
2017-Feb-14 17:32N 25°46' W 080°10'0 0.0
2017-Feb-14 16:29N 25°46' W 080°10'0 0.0
2017-Feb-14 15:32N 25°46' W 080°10'0 0.0
2017-Feb-14 14:32N 25°46' W 080°10'0 0.0
2017-Feb-14 13:32N 25°46' W 080°10'0 0.0
2017-Feb-14 12:32N 25°46' W 080°10'0 0.3
2017-Feb-14 11:34N 25°46' W 080°10'9 8.7
2017-Feb-14 10:34N 25°41' W 080°02'1514.5
2017-Feb-14 09:33N 25°26' W 080°02'1514.6
2017-Feb-14 08:33N 25°12' W 080°07'  
Track history (hours):
 
Tides and Currents Weather Stations Pressure Air Temp Water Temp Dewpoint Dewpoint Depression Visibility Wind Speed Wind Dir Waves Ship Positions

Caribe Navigator

Last reported at 2017-Feb-24 00:07 UTC. Time now 2017-Feb-27 20:24 UTC.
Position N 25°17' W 080°04'.

Length 100 m; draft 5.4 m.

Type: Cargo ship. MMSI: 305289000.

Date/timePositionNaut miles runAvg speedWind from/ knotsBaromVisibWave heightAir tempDewpointWater temp
2017-Feb-24 00:07N 25°17' W 080°04'610.9
2017-Feb-23 23:33N 25°22' W 080°02'1111.2
2017-Feb-23 22:33N 25°33' W 080°01'1111.3
2017-Feb-23 21:33N 25°45' W 080°02'1312.9
2017-Feb-23 20:33N 25°58' W 080°04'9 8.6
2017-Feb-23 19:34N 26°05' W 080°07'0 0.0
2017-Feb-23 18:22N 26°05' W 080°07'0 0.0
2017-Feb-23 17:31N 26°05' W 080°07'0 0.0
2017-Feb-23 16:31N 26°05' W 080°07'0 0.0
2017-Feb-23 15:22N 26°05' W 080°07'0 0.0
2017-Feb-23 14:22N 26°05' W 080°07'0 0.0
2017-Feb-23 13:22N 26°05' W 080°07'0 0.0
2017-Feb-23 12:25N 26°05' W 080°07'0 0.0
2017-Feb-23 11:25N 26°05' W 080°07'0 0.0
2017-Feb-23 10:25N 26°05' W 080°07'0 0.0
2017-Feb-23 09:25N 26°05' W 080°07'0 0.0
2017-Feb-23 08:28N 26°05' W 080°07'0 0.0
2017-Feb-23 07:28N 26°05' W 080°07'0 0.0
2017-Feb-23 06:28N 26°05' W 080°07'0 0.0
2017-Feb-23 05:28N 26°05' W 080°07'0 0.0
2017-Feb-23 04:28N 26°05' W 080°07'0 0.0
2017-Feb-23 03:31N 26°05' W 080°07'0 0.0
2017-Feb-23 02:31N 26°05' W 080°07'0 0.0
2017-Feb-23 01:31N 26°05' W 080°07'0 0.0
2017-Feb-23 00:31N 26°05' W 080°07'0 0.0
2017-Feb-22 23:31N 26°05' W 080°07'0 0.0
2017-Feb-22 22:31N 26°05' W 080°07'0 0.0
2017-Feb-22 21:31N 26°05' W 080°07'0 0.0
2017-Feb-22 20:31N 26°05' W 080°07'0 0.0
2017-Feb-22 19:31N 26°05' W 080°07'0 0.0
2017-Feb-22 18:31N 26°05' W 080°07'0 0.0
2017-Feb-22 17:31N 26°05' W 080°07'0 0.0
2017-Feb-22 16:31N 26°05' W 080°07'0 0.0
2017-Feb-22 15:22N 26°05' W 080°07'0 0.0
2017-Feb-22 14:22N 26°05' W 080°07'0 0.0
2017-Feb-22 13:34N 26°05' W 080°07'0 0.0
2017-Feb-22 12:33N 26°05' W 080°07'0 0.0
2017-Feb-22 11:33N 26°05' W 080°07'0 0.0
2017-Feb-22 10:33N 26°05' W 080°07'0 0.0
2017-Feb-22 09:24N 26°05' W 080°07'0 0.0
2017-Feb-22 08:21N 26°05' W 080°07'0 0.0
2017-Feb-22 07:27N 26°05' W 080°07'0 0.0
2017-Feb-22 06:27N 26°05' W 080°07'0 0.0
2017-Feb-22 05:27N 26°05' W 080°07'0 0.0
2017-Feb-22 04:27N 26°05' W 080°07'0 0.0
2017-Feb-22 03:27N 26°05' W 080°07'0 0.0
2017-Feb-22 02:30N 26°05' W 080°07'0 0.0
2017-Feb-22 01:30N 26°05' W 080°07'0 0.0
2017-Feb-22 00:30N 26°05' W 080°07'3 3.7
2017-Feb-21 23:34N 26°03' W 080°04'1515.1
2017-Feb-21 22:33N 25°48' W 080°04'6 5.7
2017-Feb-21 21:33N 25°46' W 080°10'0 0.0
2017-Feb-21 20:33N 25°46' W 080°10'0 0.0
2017-Feb-21 19:32N 25°46' W 080°10'0 0.0
2017-Feb-21 18:32N 25°46' W 080°10'0 0.0
2017-Feb-21 17:32N 25°46' W 080°10'0 0.0
2017-Feb-21 16:33N 25°46' W 080°10'5 5.4
2017-Feb-21 15:33N 25°46' W 080°04'3 3.1
2017-Feb-21 14:34N 25°43' W 080°03'  
2017-Feb-16 23:32N 25°23' W 079°60'1010.1
2017-Feb-16 22:33N 25°33' W 080°01'1010.4
2017-Feb-16 21:33N 25°43' W 080°02'1010.0
2017-Feb-16 20:33N 25°53' W 080°03'1010.1
2017-Feb-16 19:33N 26°03' W 080°04'4 3.2
2017-Feb-16 18:27N 26°05' W 080°07'0 0.0
2017-Feb-16 17:27N 26°05' W 080°07'0 0.0
2017-Feb-16 16:27N 26°05' W 080°07'0 0.0
2017-Feb-16 15:27N 26°05' W 080°07'0 0.0
2017-Feb-16 14:27N 26°05' W 080°07'0 0.0
2017-Feb-16 13:30N 26°05' W 080°07'0 0.0
2017-Feb-16 12:30N 26°05' W 080°07'0 0.0
2017-Feb-16 11:30N 26°05' W 080°07'0 0.0
2017-Feb-16 10:30N 26°05' W 080°07'0 0.0
2017-Feb-16 09:30N 26°05' W 080°07'0 0.0
2017-Feb-16 08:33N 26°05' W 080°07'0 0.0
2017-Feb-16 07:33N 26°05' W 080°07'0 0.0
2017-Feb-16 06:27N 26°05' W 080°07'0 0.0
2017-Feb-16 05:18N 26°05' W 080°07'0 0.0
2017-Feb-16 04:33N 26°05' W 080°07'0 0.0
2017-Feb-16 03:33N 26°05' W 080°07'0 0.0
2017-Feb-16 02:33N 26°05' W 080°07'0 0.0
2017-Feb-16 01:33N 26°05' W 080°07'0 0.0
2017-Feb-16 00:33N 26°05' W 080°07'0 0.0
2017-Feb-15 23:33N 26°05' W 080°07'0 0.0
2017-Feb-15 22:33N 26°05' W 080°07'0 0.0
2017-Feb-15 21:33N 26°05' W 080°07'0 0.0
2017-Feb-15 20:33N 26°05' W 080°07'0 0.0
2017-Feb-15 19:24N 26°05' W 080°07'0 0.0
2017-Feb-15 18:24N 26°05' W 080°07'0 0.0
2017-Feb-15 17:27N 26°05' W 080°07'0 0.0
2017-Feb-15 16:27N 26°05' W 080°07'0 0.0
2017-Feb-15 15:26N 26°05' W 080°07'0 0.0
2017-Feb-15 14:26N 26°05' W 080°07'0 0.0
2017-Feb-15 13:26N 26°05' W 080°07'0 0.0
2017-Feb-15 12:29N 26°05' W 080°07'0 0.0
2017-Feb-15 11:29N 26°05' W 080°07'0 0.0
2017-Feb-15 10:29N 26°05' W 080°07'0 0.0
2017-Feb-15 09:29N 26°05' W 080°07'0 0.0
2017-Feb-15 08:29N 26°05' W 080°07'0 0.0
2017-Feb-15 07:32N 26°05' W 080°07'0 0.0
2017-Feb-15 06:32N 26°05' W 080°07'0 0.0
2017-Feb-15 05:32N 26°05' W 080°07'0 0.0
2017-Feb-15 04:32N 26°05' W 080°07'0 0.0
2017-Feb-15 03:32N 26°05' W 080°07'0 0.0
2017-Feb-15 02:32N 26°05' W 080°07'0 0.0
2017-Feb-15 01:32N 26°05' W 080°07'0 0.0
2017-Feb-15 00:32N 26°05' W 080°07'0 0.0
2017-Feb-14 23:32N 26°05' W 080°07'0 0.2
2017-Feb-14 22:34N 26°06' W 080°07'1312.5
2017-Feb-14 21:33N 25°54' W 080°03'10 9.4
2017-Feb-14 20:32N 25°46' W 080°10'0 0.0
2017-Feb-14 19:32N 25°46' W 080°10'0 0.0
2017-Feb-14 18:32N 25°46' W 080°10'0 0.0
2017-Feb-14 17:32N 25°46' W 080°10'0 0.0
2017-Feb-14 16:29N 25°46' W 080°10'0 0.0
2017-Feb-14 15:32N 25°46' W 080°10'0 0.0
2017-Feb-14 14:32N 25°46' W 080°10'0 0.0
2017-Feb-14 13:32N 25°46' W 080°10'0 0.0
2017-Feb-14 12:32N 25°46' W 080°10'0 0.3
2017-Feb-14 11:34N 25°46' W 080°10'9 8.7
2017-Feb-14 10:34N 25°41' W 080°02'1514.5
2017-Feb-14 09:33N 25°26' W 080°02'1514.6
2017-Feb-14 08:33N 25°12' W 080°07'  

Dump ship's entire track history